Time;durP1;ratioP1;P1;durP2;ratioP2;P2;SDS_P1;SDS_P2;PMS_P1;PMS_P2;Temp;Humidity;BMP_temperature;BMP_pressure;BME280_temperature;BME280_humidity;BME280_pressure;Samples;Min_cycle;Max_cycle;Signal;HPM_P1;HPM_P2
2022/08/22 00:02:01;;;;;;;6.80;3.53;;;17.70;99.90;;;;;;4923060;29;20048;-83
2022/08/22 00:04:40;;;;;;;8.88;3.47;;;17.70;99.90;;;;;;4932306;29;20044;-83
2022/08/22 00:07:11;;;;;;;7.15;3.05;;;17.60;99.90;;;;;;4918595;29;20047;-83
2022/08/22 00:10:01;;;;;;;9.50;3.05;;;17.60;99.90;;;;;;4933983;29;20055;-83
2022/08/22 00:12:34;;;;;;;7.00;2.90;;;17.60;99.90;;;;;;4931901;29;20054;-83
2022/08/22 00:15:31;;;;;;;6.63;3.03;;;17.60;99.90;;;;;;4932872;29;20051;-83
2022/08/22 00:18:08;;;;;;;7.35;2.92;;;17.60;99.90;;;;;;4933849;29;20067;-82
2022/08/22 00:20:55;;;;;;;9.07;3.17;;;17.60;99.90;;;;;;4935087;29;20040;-84
2022/08/22 00:23:29;;;;;;;6.78;2.65;;;17.60;99.90;;;;;;4909784;29;20044;-84
2022/08/22 00:26:07;;;;;;;7.18;2.80;;;17.50;99.90;;;;;;4935566;29;20043;-83
2022/08/22 00:28:40;;;;;;;6.35;2.95;;;17.50;99.90;;;;;;4903576;29;20131;-83
2022/08/22 00:31:35;;;;;;;7.68;3.08;;;17.50;99.90;;;;;;4916243;29;20547;-83
2022/08/22 00:34:06;;;;;;;7.22;3.30;;;17.50;99.90;;;;;;4919043;29;20055;-84
2022/08/22 00:36:47;;;;;;;7.05;2.78;;;17.50;99.90;;;;;;4938807;29;20048;-83
2022/08/22 00:39:15;;;;;;;6.32;2.78;;;17.50;99.90;;;;;;4933785;29;20043;-82
2022/08/22 00:42:01;;;;;;;7.90;2.78;;;17.50;99.90;;;;;;4919375;29;20032;-83
2022/08/22 00:44:45;;;;;;;8.05;3.22;;;17.50;99.90;;;;;;4909967;29;20380;-83
2022/08/22 00:47:38;;;;;;;7.10;3.10;;;17.50;99.90;;;;;;4929026;29;20059;-83
2022/08/22 00:50:16;;;;;;;11.05;4.18;;;17.40;99.90;;;;;;4932636;29;20087;-83
2022/08/22 00:53:15;;;;;;;9.15;3.05;;;17.40;99.90;;;;;;4929283;29;20059;-83
2022/08/22 00:56:07;;;;;;;8.75;3.60;;;17.30;99.90;;;;;;4913080;29;20051;-83
2022/08/22 00:58:35;;;;;;;9.60;3.42;;;17.30;99.90;;;;;;4896354;29;20503;-83
2022/08/22 01:01:09;;;;;;;6.70;3.20;;;17.30;99.90;;;;;;4937524;29;20050;-83
2022/08/22 01:04:06;;;;;;;9.98;3.38;;;17.30;99.90;;;;;;4919691;29;20044;-83
2022/08/22 01:06:59;;;;;;;7.45;3.15;;;17.30;99.90;;;;;;4932845;29;20059;-83
2022/08/22 01:09:40;;;;;;;8.00;3.03;;;17.30;99.90;;;;;;4929836;29;20055;-83
2022/08/22 01:12:34;;;;;;;8.57;3.50;;;17.20;99.90;;;;;;4936378;29;20569;-83
2022/08/22 01:15:06;;;;;;;6.50;3.15;;;17.20;99.90;;;;;;4934414;29;20051;-83
2022/08/22 01:17:40;;;;;;;9.77;3.63;;;17.20;99.90;;;;;;4936227;29;20080;-83
2022/08/22 01:20:23;;;;;;;9.95;3.30;;;17.30;99.90;;;;;;4924875;29;20079;-83
2022/08/22 01:23:25;;;;;;;10.55;3.05;;;17.20;99.90;;;;;;4916891;29;20065;-83
2022/08/22 01:26:28;;;;;;;8.57;3.28;;;17.20;99.90;;;;;;4909293;29;20040;-83
2022/08/22 01:29:32;;;;;;;4.75;2.92;;;17.20;99.90;;;;;;4933912;29;20043;-83
2022/08/22 01:32:27;;;;;;;10.18;3.70;;;17.20;99.90;;;;;;4918804;29;20134;-83
2022/08/22 01:34:53;;;;;;;7.05;3.40;;;17.20;99.90;;;;;;4921889;29;20200;-83
2022/08/22 01:37:30;;;;;;;10.18;3.60;;;17.10;99.90;;;;;;4929358;29;20043;-83
2022/08/22 01:40:21;;;;;;;6.78;2.97;;;17.10;99.90;;;;;;4938471;29;20099;-83
2022/08/22 01:43:04;;;;;;;6.78;3.53;;;17.10;99.90;;;;;;4918582;29;20039;-83
2022/08/22 01:45:49;;;;;;;8.18;3.92;;;17.10;99.90;;;;;;4932310;29;20048;-83
2022/08/22 01:48:30;;;;;;;8.88;4.10;;;17.10;99.90;;;;;;4952325;28;20501;-83
2022/08/22 01:51:13;;;;;;;9.23;4.60;;;17.10;99.90;;;;;;4934188;29;20078;-83
2022/08/22 01:54:01;;;;;;;9.15;4.63;;;17.00;99.90;;;;;;4915599;29;20047;-84
2022/08/22 01:56:39;;;;;;;8.98;4.78;;;17.00;99.90;;;;;;4938619;29;20515;-84
2022/08/22 01:59:09;;;;;;;11.15;5.10;;;17.00;99.90;;;;;;4912091;29;20039;-84
2022/08/22 02:02:05;;;;;;;9.35;5.20;;;17.00;99.90;;;;;;4925618;29;20099;-83
2022/08/22 02:05:13;;;;;;;10.77;4.90;;;16.90;99.90;;;;;;4910698;29;20047;-83
2022/08/22 02:07:59;;;;;;;8.93;4.53;;;16.90;99.90;;;;;;4932455;29;20043;-83
2022/08/22 02:10:54;;;;;;;10.55;4.82;;;16.90;99.90;;;;;;4924945;29;20048;-83
2022/08/22 02:13:59;;;;;;;14.02;5.65;;;16.90;99.90;;;;;;4924454;29;20056;-83
2022/08/22 02:16:36;;;;;;;11.05;5.35;;;16.80;99.90;;;;;;4928521;29;20048;-83
2022/08/22 02:19:12;;;;;;;13.00;5.22;;;16.80;99.90;;;;;;4953536;28;20055;-83
2022/08/22 02:22:21;;;;;;;9.85;4.50;;;16.70;99.90;;;;;;4908708;29;20488;-83
2022/08/22 02:25:03;;;;;;;9.05;4.40;;;16.70;99.90;;;;;;4902251;29;20050;-83
2022/08/22 02:27:56;;;;;;;8.77;4.68;;;16.70;99.90;;;;;;4927280;29;20047;-83
2022/08/22 02:30:46;;;;;;;7.85;4.88;;;16.60;99.90;;;;;;4915168;29;20366;-83
2022/08/22 02:33:25;;;;;;;9.75;4.57;;;16.60;99.90;;;;;;4905808;29;20052;-83
2022/08/22 02:35:58;;;;;;;10.75;4.72;;;16.70;99.90;;;;;;4920083;29;20070;-83
2022/08/22 02:38:39;;;;;;;8.52;4.55;;;16.70;99.90;;;;;;4948047;29;20044;-83
2022/08/22 02:41:35;;;;;;;10.25;4.95;;;16.70;99.90;;;;;;4914873;29;20051;-83
2022/08/22 02:44:25;;;;;;;10.73;4.78;;;16.70;99.90;;;;;;4935694;29;20088;-83
2022/08/22 02:47:05;;;;;;;9.57;4.60;;;16.70;99.90;;;;;;4935557;29;20051;-83
2022/08/22 02:49:58;;;;;;;10.00;4.32;;;16.70;99.90;;;;;;4914851;29;20048;-83
2022/08/22 02:52:38;;;;;;;11.60;4.95;;;16.60;99.90;;;;;;4932747;29;20064;-83
2022/08/22 02:55:15;;;;;;;9.48;5.20;;;16.60;99.90;;;;;;4932837;29;20082;-83
2022/08/22 02:57:55;;;;;;;10.13;4.40;;;16.60;99.90;;;;;;4913586;29;20048;-83
2022/08/22 03:00:21;;;;;;;6.82;3.50;;;16.60;99.90;;;;;;4914614;29;20068;-83
2022/08/22 03:02:58;;;;;;;11.43;3.95;;;16.60;99.90;;;;;;4914590;29;20039;-84
2022/08/22 03:05:36;;;;;;;11.43;4.38;;;16.60;99.90;;;;;;4934776;29;20047;-83
2022/08/22 03:08:20;;;;;;;11.63;4.82;;;16.60;99.90;;;;;;4933593;29;20044;-83
2022/08/22 03:11:06;;;;;;;6.95;4.13;;;16.60;99.90;;;;;;4926855;29;20082;-83
2022/08/22 03:13:53;;;;;;;9.45;4.13;;;16.60;99.90;;;;;;4925393;29;20048;-83
2022/08/22 03:16:57;;;;;;;10.70;4.25;;;16.60;99.90;;;;;;4918782;29;20046;-83
2022/08/22 03:19:47;;;;;;;8.23;4.45;;;16.60;99.90;;;;;;4932019;29;20043;-83
2022/08/22 03:22:32;;;;;;;9.63;4.93;;;16.60;99.90;;;;;;4943568;29;20492;-83
2022/08/22 03:25:36;;;;;;;6.57;4.50;;;16.60;99.90;;;;;;4908708;29;20039;-83
2022/08/22 03:28:12;;;;;;;7.80;4.57;;;16.50;99.90;;;;;;4932092;29;20046;-83
2022/08/22 03:30:50;;;;;;;9.38;4.90;;;16.80;99.90;;;;;;4932915;29;20048;-84
2022/08/22 03:33:26;;;;;;;9.98;4.43;;;16.50;99.90;;;;;;4917009;29;20046;-83
2022/08/22 03:36:26;;;;;;;8.15;4.00;;;16.50;99.90;;;;;;4904054;29;20449;-83
2022/08/22 03:39:04;;;;;;;10.10;4.90;;;16.50;99.90;;;;;;4914373;28;20072;-83
2022/08/22 03:41:48;;;;;;;10.82;5.00;;;16.50;99.90;;;;;;4930809;29;20044;-83
2022/08/22 03:44:40;;;;;;;8.13;5.07;;;16.40;99.90;;;;;;4929909;29;20040;-83
2022/08/22 03:47:21;;;;;;;12.43;4.68;;;16.50;99.90;;;;;;4927456;29;20058;-83
2022/08/22 03:50:09;;;;;;;7.55;5.05;;;16.40;99.90;;;;;;4926135;29;20052;-83
2022/08/22 03:53:10;;;;;;;11.10;4.50;;;16.40;99.90;;;;;;4908037;29;20393;-83
2022/08/22 03:56:30;;;;;;;9.65;4.45;;;16.40;99.90;;;;;;4932711;29;20059;-83
2022/08/22 03:59:03;;;;;;;10.90;4.63;;;16.40;99.90;;;;;;4888932;29;20507;-83
2022/08/22 04:02:07;;;;;;;8.18;4.30;;;16.30;99.90;;;;;;4934836;29;20039;-83
2022/08/22 04:05:04;;;;;;;9.80;4.30;;;16.40;99.90;;;;;;4922416;29;20483;-83
2022/08/22 04:07:50;;;;;;;11.32;4.53;;;16.40;99.90;;;;;;4916278;29;20130;-83
2022/08/22 04:11:00;;;;;;;8.73;4.78;;;16.40;99.90;;;;;;4903588;29;20054;-83
2022/08/22 04:13:57;;;;;;;12.27;4.43;;;16.40;99.90;;;;;;4875557;29;20099;-83
2022/08/22 04:16:55;;;;;;;11.75;5.35;;;16.30;99.90;;;;;;4908192;29;20059;-83
2022/08/22 04:19:58;;;;;;;11.55;4.78;;;16.30;99.90;;;;;;4918516;29;20044;-84
2022/08/22 04:22:48;;;;;;;9.45;4.70;;;16.30;99.90;;;;;;4931464;29;20043;-83
2022/08/22 04:25:37;;;;;;;8.98;4.82;;;16.20;99.90;;;;;;4924014;29;20138;-83
2022/08/22 04:28:35;;;;;;;10.20;4.90;;;16.20;99.90;;;;;;4913777;29;20103;-83
2022/08/22 04:31:12;;;;;;;6.45;4.07;;;16.20;99.90;;;;;;4917901;29;20046;-84
2022/08/22 04:33:56;;;;;;;11.85;4.70;;;16.20;99.90;;;;;;4935857;29;20051;-83
2022/08/22 04:36:34;;;;;;;7.38;4.78;;;16.20;99.90;;;;;;4929045;29;20496;-83
2022/08/22 04:39:09;;;;;;;11.02;4.95;;;16.20;99.90;;;;;;4952003;29;20099;-83
2022/08/22 04:41:41;;;;;;;8.15;4.72;;;16.20;99.90;;;;;;4930787;29;20123;-83
2022/08/22 04:44:34;;;;;;;7.80;4.35;;;16.20;99.90;;;;;;4932801;29;20047;-83
2022/08/22 04:47:28;;;;;;;9.75;4.30;;;16.20;99.90;;;;;;4935395;29;20126;-83
2022/08/22 04:50:12;;;;;;;10.63;4.25;;;16.20;99.90;;;;;;4918461;29;20048;-83
2022/08/22 04:53:15;;;;;;;13.63;4.53;;;16.20;99.90;;;;;;4915675;29;20528;-82
2022/08/22 04:56:00;;;;;;;9.55;4.07;;;16.20;99.90;;;;;;4934469;29;20051;-82
2022/08/22 04:58:40;;;;;;;9.88;4.28;;;16.20;99.90;;;;;;4933499;29;20062;-83
2022/08/22 05:01:06;;;;;;;12.13;4.90;;;16.20;99.90;;;;;;4921641;29;20047;-82
2022/08/22 05:03:36;;;;;;;9.90;4.97;;;16.20;99.90;;;;;;4917195;29;20050;-82
2022/08/22 05:06:04;;;;;;;9.10;5.10;;;16.20;99.90;;;;;;4913581;29;20385;-82
2022/08/22 05:08:34;;;;;;;7.85;5.10;;;16.30;99.90;;;;;;4916368;29;20048;-82
2022/08/22 05:11:04;;;;;;;9.15;5.18;;;16.30;99.90;;;;;;4936813;29;20044;-84
2022/08/22 05:13:43;;;;;;;10.48;5.10;;;16.30;99.90;;;;;;4933616;29;20051;-81
2022/08/22 05:16:14;;;;;;;11.80;5.40;;;16.30;99.90;;;;;;4921316;29;20047;-81
2022/08/22 05:18:52;;;;;;;12.10;5.55;;;16.30;99.90;;;;;;4922074;29;20067;-81
2022/08/22 05:21:23;;;;;;;10.27;5.35;;;16.30;99.90;;;;;;4935992;29;20067;-85
2022/08/22 05:24:12;;;;;;;10.05;5.05;;;16.30;99.90;;;;;;4930421;29;20051;-81
2022/08/22 05:26:45;;;;;;;8.02;4.35;;;16.40;99.90;;;;;;4935983;29;20035;-81
2022/08/22 05:29:16;;;;;;;9.65;4.75;;;16.40;99.90;;;;;;4934318;29;20075;-82
2022/08/22 05:31:53;;;;;;;9.63;4.97;;;16.40;99.90;;;;;;4935940;29;20046;-82
2022/08/22 05:34:29;;;;;;;8.95;4.57;;;16.40;99.90;;;;;;4931974;29;20067;-81
2022/08/22 05:37:13;;;;;;;11.05;4.88;;;16.50;99.90;;;;;;4918132;29;20052;-82
2022/08/22 05:39:45;;;;;;;9.00;4.50;;;16.50;99.90;;;;;;4931721;29;20535;-82
2022/08/22 05:42:17;;;;;;;11.95;5.13;;;16.50;99.90;;;;;;4909553;29;20047;-82
2022/08/22 05:44:43;;;;;;;10.18;4.65;;;16.50;99.90;;;;;;4915513;29;20357;-83
2022/08/22 05:47:25;;;;;;;10.95;4.40;;;16.50;99.90;;;;;;4912203;29;20063;-82
2022/08/22 05:50:06;;;;;;;9.10;4.20;;;16.50;99.90;;;;;;4928296;29;20048;-82
2022/08/22 05:52:53;;;;;;;7.75;4.10;;;16.50;99.90;;;;;;4930774;29;20062;-82
2022/08/22 05:55:43;;;;;;;9.50;3.97;;;16.50;99.90;;;;;;4927623;29;20043;-82
2022/08/22 05:58:33;;;;;;;10.15;4.30;;;16.50;99.90;;;;;;4934212;29;20497;-82
2022/08/22 06:01:20;;;;;;;7.13;3.55;;;16.50;99.90;;;;;;4925071;29;20591;-82
2022/08/22 06:04:05;;;;;;;8.02;3.95;;;16.50;99.90;;;;;;4923818;29;20521;-82
2022/08/22 06:06:38;;;;;;;9.40;4.43;;;16.60;99.90;;;;;;4911953;29;20077;-81
2022/08/22 06:09:42;;;;;;;10.75;4.15;;;16.60;99.90;;;;;;4935500;29;20056;-82
2022/08/22 06:12:13;;;;;;;8.38;3.92;;;16.70;99.90;;;;;;4937250;29;20519;-81
2022/08/22 06:14:47;;;;;;;9.57;3.83;;;16.60;99.90;;;;;;4931399;29;20048;-82
2022/08/22 06:17:18;;;;;;;7.70;4.00;;;16.70;99.90;;;;;;4917369;29;20055;-82
2022/08/22 06:19:48;;;;;;;9.65;4.15;;;16.70;99.90;;;;;;4909667;29;20052;-81
2022/08/22 06:22:25;;;;;;;8.52;3.83;;;16.70;99.90;;;;;;4917448;29;20381;-83
2022/08/22 06:24:53;;;;;;;7.72;4.05;;;16.80;99.90;;;;;;4936317;29;20066;-82
2022/08/22 06:27:23;;;;;;;7.35;3.75;;;16.80;99.90;;;;;;4918990;29;20048;-82
2022/08/22 06:29:57;;;;;;;9.63;3.40;;;16.80;99.90;;;;;;4923760;29;20043;-82
2022/08/22 06:32:30;;;;;;;13.43;4.68;;;16.90;99.90;;;;;;4933785;29;20535;-82
2022/08/22 06:35:19;;;;;;;11.57;4.63;;;16.90;99.90;;;;;;4922758;29;20400;-82
2022/08/22 06:37:47;;;;;;;14.18;5.30;;;17.00;99.90;;;;;;4907693;29;20106;-82
2022/08/22 06:40:15;;;;;;;12.30;4.10;;;17.20;99.90;;;;;;4934221;29;20404;-83
2022/08/22 06:42:46;;;;;;;11.30;4.47;;;17.00;99.90;;;;;;4935721;29;20039;-82
2022/08/22 06:45:32;;;;;;;9.02;4.10;;;17.10;99.90;;;;;;4933917;29;20091;-82
2022/08/22 06:48:07;;;;;;;9.77;4.20;;;17.10;99.90;;;;;;4926605;29;20048;-82
2022/08/22 06:50:36;;;;;;;7.25;3.90;;;17.20;99.90;;;;;;4927052;29;20473;-82
2022/08/22 06:53:05;;;;;;;8.43;4.80;;;17.20;99.90;;;;;;4936753;29;20674;-82
2022/08/22 06:55:31;;;;;;;16.17;4.82;;;17.30;99.90;;;;;;4933695;29;20054;-82
2022/08/22 06:58:10;;;;;;;9.52;4.43;;;17.30;99.90;;;;;;4939062;29;20087;-81
2022/08/22 07:00:40;;;;;;;11.77;4.30;;;17.40;99.90;;;;;;4908529;29;20054;-82
2022/08/22 07:03:34;;;;;;;10.10;4.32;;;17.40;99.90;;;;;;4906426;29;20142;-82
2022/08/22 07:06:00;;;;;;;8.68;3.92;;;17.50;99.90;;;;;;4913937;29;20058;-82
2022/08/22 07:08:29;;;;;;;12.20;4.35;;;17.50;99.90;;;;;;4932894;29;20044;-82
2022/08/22 07:11:11;;;;;;;11.50;4.70;;;17.50;99.90;;;;;;4906796;29;20415;-82
2022/08/22 07:13:41;;;;;;;12.10;4.30;;;17.60;99.90;;;;;;4931600;29;20134;-82
2022/08/22 07:16:08;;;;;;;11.93;4.68;;;17.60;99.90;;;;;;4932441;29;20046;-82
2022/08/22 07:18:44;;;;;;;12.73;4.38;;;17.70;99.90;;;;;;4918723;29;20059;-82
2022/08/22 07:21:10;;;;;;;10.25;4.22;;;17.70;99.90;;;;;;4917014;29;20043;-82
2022/08/22 07:23:39;;;;;;;12.25;4.18;;;17.80;99.90;;;;;;4910843;29;20394;-82
2022/08/22 07:26:25;;;;;;;10.90;4.47;;;17.80;99.90;;;;;;4923731;29;20048;-82
2022/08/22 07:28:54;;;;;;;9.85;3.83;;;17.90;99.90;;;;;;4925238;29;20122;-82
2022/08/22 07:31:37;;;;;;;10.15;4.43;;;17.90;99.90;;;;;;4934724;29;20086;-82
2022/08/22 07:34:19;;;;;;;14.55;5.30;;;18.00;99.90;;;;;;4934194;29;20126;-82
2022/08/22 07:37:15;;;;;;;11.20;4.18;;;18.10;99.90;;;;;;4937142;29;20055;-82
2022/08/22 07:39:49;;;;;;;9.23;4.05;;;18.10;99.90;;;;;;4920702;29;20047;-82
2022/08/22 07:42:21;;;;;;;10.60;4.40;;;18.10;99.90;;;;;;4924787;29;20040;-82
2022/08/22 07:44:55;;;;;;;8.52;4.50;;;18.10;99.90;;;;;;4933870;29;20066;-82
2022/08/22 07:47:26;;;;;;;9.98;4.60;;;18.10;99.90;;;;;;4934914;29;20063;-82
2022/08/22 07:49:56;;;;;;;11.23;4.40;;;18.10;99.90;;;;;;4919293;29;20107;-82
2022/08/22 07:52:23;;;;;;;12.65;4.18;;;18.20;99.90;;;;;;4918364;29;20055;-82
2022/08/22 07:55:07;;;;;;;10.52;4.03;;;18.20;99.90;;;;;;4919190;29;20075;-82
2022/08/22 07:57:39;;;;;;;9.30;4.47;;;18.30;99.90;;;;;;4928470;29;20142;-84
2022/08/22 08:00:13;;;;;;;10.35;4.03;;;18.40;99.90;;;;;;4934045;29;20388;-81
2022/08/22 08:02:45;;;;;;;15.43;4.97;;;18.50;99.90;;;;;;4927434;29;20040;-82
2022/08/22 08:05:13;;;;;;;13.32;3.97;;;18.60;99.90;;;;;;4913745;29;20066;-81
2022/08/22 08:07:41;;;;;;;7.72;3.42;;;18.70;99.90;;;;;;4920833;29;20114;-81
2022/08/22 08:10:18;;;;;;;10.48;4.10;;;18.80;99.90;;;;;;4920227;29;20070;-81
2022/08/22 08:12:53;;;;;;;8.57;3.58;;;18.90;99.90;;;;;;4937014;29;20136;-81
2022/08/22 08:15:21;;;;;;;8.05;3.70;;;19.00;99.90;;;;;;4916224;29;20115;-81
2022/08/22 08:17:53;;;;;;;8.73;3.53;;;19.20;99.90;;;;;;4902966;29;20441;-81
2022/08/22 08:20:21;;;;;;;8.50;3.33;;;19.30;99.90;;;;;;4928855;29;20135;-81
2022/08/22 08:22:48;;;;;;;10.10;3.30;;;19.30;99.90;;;;;;4918640;29;20110;-81
2022/08/22 08:25:27;;;;;;;10.00;2.90;;;19.40;99.90;;;;;;4936690;29;20051;-81
2022/08/22 08:31:07;;;;;;;10.18;3.17;;;19.70;99.90;;;;;;4921351;29;20139;-81
2022/08/22 08:33:37;;;;;;;9.35;2.63;;;19.70;99.90;;;;;;4936559;29;20119;-81
2022/08/22 08:36:36;;;;;;;7.35;2.53;;;19.80;99.90;;;;;;4913849;29;20139;-81
2022/08/22 08:39:17;;;;;;;8.80;3.08;;;19.90;99.90;;;;;;4915413;29;20232;-81
2022/08/22 08:42:07;;;;;;;10.90;2.42;;;20.00;99.90;;;;;;4917050;29;20067;-81
2022/08/22 08:45:19;;;;;;;9.40;2.20;;;20.10;99.90;;;;;;4935255;28;20129;-81
2022/08/22 08:47:57;;;;;;;8.05;2.20;;;20.40;99.90;;;;;;4930096;29;20055;-81
2022/08/22 08:50:35;;;;;;;4.63;2.00;;;20.50;99.90;;;;;;4917122;29;20081;-81
2022/08/22 08:53:28;;;;;;;5.18;2.05;;;20.60;99.90;;;;;;4934410;29;20456;-81
2022/08/22 08:56:12;;;;;;;7.75;2.38;;;20.80;99.90;;;;;;4935909;29;20047;-81
2022/08/22 08:58:55;;;;;;;7.82;2.75;;;20.90;99.90;;;;;;4919963;29;20061;-80
2022/08/22 09:01:39;;;;;;;5.65;2.20;;;20.90;99.90;;;;;;4932156;29;20051;-81
2022/08/22 09:04:22;;;;;;;5.88;2.28;;;21.00;99.90;;;;;;4920222;29;20040;-81
2022/08/22 09:07:30;;;;;;;6.32;2.15;;;21.00;99.90;;;;;;4934476;29;20051;-80
2022/08/22 09:10:08;;;;;;;5.10;1.90;;;21.10;99.90;;;;;;4933324;29;20075;-80
2022/08/22 09:13:02;;;;;;;14.25;2.00;;;21.20;99.90;;;;;;4934801;29;20067;-81
2022/08/22 09:15:39;;;;;;;5.25;2.28;;;21.20;99.90;;;;;;4933936;29;20059;-80
2022/08/22 09:18:26;;;;;;;6.78;2.20;;;21.30;99.90;;;;;;4936051;29;20107;-80
2022/08/22 09:21:19;;;;;;;7.70;2.55;;;21.30;99.90;;;;;;4929227;29;20052;-81
2022/08/22 09:24:07;;;;;;;7.55;2.10;;;21.20;99.90;;;;;;4938110;29;20051;-81
2022/08/22 09:26:47;;;;;;;7.75;2.05;;;21.10;99.90;;;;;;4933341;29;20047;-81
2022/08/22 09:29:36;;;;;;;8.63;2.10;;;21.10;99.90;;;;;;4931445;29;20051;-80
2022/08/22 09:32:16;;;;;;;6.93;2.10;;;21.20;99.90;;;;;;4936287;29;20373;-80
2022/08/22 09:35:12;;;;;;;7.55;2.35;;;21.20;99.90;;;;;;4912641;29;20083;-81
2022/08/22 09:38:14;;;;;;;4.20;1.98;;;21.20;99.90;;;;;;4919996;29;20044;-80
2022/08/22 09:41:10;;;;;;;5.72;1.70;;;21.30;99.90;;;;;;4928510;29;20118;-81
2022/08/22 09:43:51;;;;;;;9.18;2.47;;;21.30;99.90;;;;;;4913796;29;20036;-81
2022/08/22 09:46:25;;;;;;;6.47;1.90;;;21.40;99.90;;;;;;4913828;29;20531;-81
2022/08/22 09:49:09;;;;;;;7.05;2.20;;;21.40;99.90;;;;;;4932320;29;20044;-82
2022/08/22 09:51:49;;;;;;;7.53;2.65;;;21.40;99.90;;;;;;4929849;29;20035;-82
2022/08/22 09:54:33;;;;;;;6.35;1.90;;;21.50;99.90;;;;;;4932212;29;20048;-82
2022/08/22 09:57:25;;;;;;;6.30;1.85;;;21.50;99.90;;;;;;4915200;29;20074;-81
2022/08/22 10:00:12;;;;;;;6.25;1.52;;;21.50;99.90;;;;;;4933854;29;20524;-82
2022/08/22 10:03:00;;;;;;;7.65;2.33;;;21.60;99.90;;;;;;4928444;29;20099;-81
2022/08/22 10:05:28;;;;;;;5.47;1.75;;;21.70;99.90;;;;;;4926092;29;20435;-81
2022/08/22 10:08:09;;;;;;;8.88;2.33;;;21.70;99.90;;;;;;4913448;29;20050;-81
2022/08/22 10:10:57;;;;;;;6.45;1.90;;;21.80;99.90;;;;;;4927310;29;20044;-82
2022/08/22 10:13:47;;;;;;;8.27;2.10;;;21.90;99.90;;;;;;4928047;29;20092;-81
2022/08/22 10:16:43;;;;;;;5.43;2.05;;;22.00;99.90;;;;;;4920974;29;20052;-82
2022/08/22 10:19:21;;;;;;;5.82;2.15;;;22.00;99.90;;;;;;4927715;29;20047;-81
2022/08/22 10:22:18;;;;;;;8.40;2.20;;;22.00;99.90;;;;;;4935114;29;20126;-83
2022/08/22 10:24:54;;;;;;;;;;;22.10;99.90;;;;;;4932472;29;20032;-81
2022/08/22 10:27:52;;;;;;;6.55;2.00;;;22.10;99.90;;;;;;4934853;29;19993;-82
2022/08/22 10:30:20;;;;;;;6.63;2.00;;;22.10;99.90;;;;;;4913822;29;20096;-82
2022/08/22 10:33:15;;;;;;;5.32;1.75;;;22.10;99.90;;;;;;4924095;29;20115;-81
2022/08/22 10:36:40;;;;;;;5.85;1.92;;;22.10;99.90;;;;;;4931937;29;20404;-81
2022/08/22 10:39:09;;;;;;;7.75;2.22;;;22.10;99.90;;;;;;4897587;29;20060;-81
2022/08/22 10:41:57;;;;;;;6.03;2.03;;;22.20;99.90;;;;;;4930957;29;20047;-82
2022/08/22 10:44:41;;;;;;;6.53;2.08;;;22.20;99.90;;;;;;4937900;29;20059;-82
2022/08/22 10:47:13;;;;;;;8.00;1.77;;;22.20;99.90;;;;;;4928332;29;20051;-82
2022/08/22 10:49:55;;;;;;;4.03;1.63;;;22.20;99.90;;;;;;4924000;29;20055;-82
2022/08/22 10:52:29;;;;;;;3.22;1.42;;;22.20;99.90;;;;;;4912615;29;20059;-81
2022/08/22 10:55:00;;;;;;;5.03;1.88;;;22.30;99.90;;;;;;4911645;29;20054;-82
2022/08/22 10:57:31;;;;;;;5.35;2.00;;;22.30;99.90;;;;;;4933201;29;20170;-82
2022/08/22 11:00:05;;;;;;;5.32;1.90;;;22.40;99.90;;;;;;4915263;29;20189;-80
2022/08/22 11:03:00;;;;;;;9.20;2.33;;;22.40;99.90;;;;;;4933094;29;20488;-81
2022/08/22 11:05:37;;;;;;;5.70;1.80;;;22.50;99.90;;;;;;4918097;29;20047;-82
2022/08/22 11:08:31;;;;;;;4.22;1.65;;;22.60;99.90;;;;;;4904750;29;20055;-82
2022/08/22 11:11:10;;;;;;;6.93;2.00;;;22.70;99.90;;;;;;4916818;29;20040;-82
2022/08/22 11:13:39;;;;;;;6.60;2.10;;;22.80;99.90;;;;;;4934332;29;20047;-82
2022/08/22 11:16:33;;;;;;;6.15;1.88;;;22.80;99.80;;;;;;4926485;29;20054;-81
2022/08/22 11:19:21;;;;;;;7.70;1.85;;;22.90;99.50;;;;;;4909417;29;20067;-80
2022/08/22 11:22:00;;;;;;;7.47;1.95;;;22.90;99.10;;;;;;4929552;29;20122;-82
2022/08/22 11:24:56;;;;;;;5.70;2.05;;;22.90;99.50;;;;;;4925627;29;20047;-83
2022/08/22 11:27:37;;;;;;;3.97;1.60;;;22.90;99.50;;;;;;4909217;29;20519;-82
2022/08/22 11:30:08;;;;;;;6.22;2.13;;;23.00;99.60;;;;;;4933916;29;20055;-81
2022/08/22 11:33:15;;;;;;;5.10;1.90;;;23.00;99.20;;;;;;4924843;29;20051;-82
2022/08/22 11:36:10;;;;;;;5.88;1.77;;;23.10;99.30;;;;;;4935752;29;20062;-82
2022/08/22 11:38:44;;;;;;;4.85;1.67;;;23.10;98.80;;;;;;4923249;29;20055;-80
2022/08/22 11:41:28;;;;;;;7.07;2.08;;;23.10;99.10;;;;;;4914918;29;20043;-82
2022/08/22 11:44:02;;;;;;;5.70;1.98;;;23.10;98.70;;;;;;4940776;28;20048;-82
2022/08/22 11:46:30;;;;;;;5.57;2.00;;;23.10;98.60;;;;;;4929102;29;20058;-82
2022/08/22 11:49:02;;;;;;;9.20;2.20;;;23.10;99.00;;;;;;4931055;29;20591;-82
2022/08/22 11:52:00;;;;;;;6.45;2.22;;;23.10;99.10;;;;;;4915694;29;20071;-83
2022/08/22 11:54:52;;;;;;;7.55;1.77;;;23.10;99.50;;;;;;4933544;29;20066;-83
2022/08/22 11:57:43;;;;;;;6.55;1.98;;;23.20;99.40;;;;;;4914636;29;20066;-82
2022/08/22 12:00:27;;;;;;;6.07;1.77;;;23.10;98.70;;;;;;4913118;29;20105;-85
2022/08/22 12:03:16;;;;;;;7.28;1.90;;;23.20;98.90;;;;;;4932780;29;20040;-81
2022/08/22 12:05:47;;;;;;;6.18;2.03;;;23.20;98.90;;;;;;4932353;29;20090;-83
2022/08/22 12:08:28;;;;;;;8.25;2.42;;;23.20;99.10;;;;;;4927592;29;20043;-81
2022/08/22 12:11:08;;;;;;;6.47;2.35;;;23.20;98.30;;;;;;4930974;29;20140;-83
2022/08/22 12:13:53;;;;;;;6.07;2.00;;;23.20;98.10;;;;;;4931112;29;20055;-82
2022/08/22 12:16:25;;;;;;;8.05;2.30;;;23.20;98.00;;;;;;4932763;29;20047;-82
2022/08/22 12:19:18;;;;;;;7.65;2.15;;;23.20;98.10;;;;;;4930832;29;20054;-82
2022/08/22 12:22:02;;;;;;;5.95;2.10;;;23.30;98.30;;;;;;4924062;29;20031;-82
2022/08/22 12:24:34;;;;;;;8.10;2.22;;;23.30;97.90;;;;;;4911023;28;20080;-82
2022/08/22 12:27:12;;;;;;;7.28;2.58;;;23.30;97.60;;;;;;4921951;29;20099;-82
2022/08/22 12:29:37;;;;;;;4.78;1.75;;;23.30;96.60;;;;;;4928610;28;20473;-82
2022/08/22 12:32:32;;;;;;;6.75;1.70;;;23.30;97.40;;;;;;4932382;29;20055;-82
2022/08/22 12:35:11;;;;;;;5.28;2.40;;;23.30;98.30;;;;;;4930278;29;20118;-82
2022/08/22 12:38:03;;;;;;;6.43;2.40;;;23.40;97.00;;;;;;4932239;29;20052;-82
2022/08/22 12:40:36;;;;;;;9.30;2.30;;;23.40;97.00;;;;;;4925121;29;20075;-82
2022/08/22 12:43:23;;;;;;;6.97;2.53;;;23.40;97.50;;;;;;4930319;29;20122;-83
2022/08/22 12:46:11;;;;;;;6.80;2.13;;;23.60;97.30;;;;;;4925704;29;20147;-82
2022/08/22 12:48:59;;;;;;;5.53;1.90;;;23.50;97.40;;;;;;4930560;29;20409;-81
2022/08/22 12:51:39;;;;;;;7.28;2.53;;;23.60;97.50;;;;;;4947265;28;20131;-82
2022/08/22 12:54:08;;;;;;;7.60;2.35;;;23.90;97.30;;;;;;4929572;29;20119;-81
2022/08/22 12:56:46;;;;;;;7.07;2.10;;;24.40;98.00;;;;;;4917050;29;20048;-82
2022/08/22 12:59:24;;;;;;;11.60;2.13;;;24.70;97.50;;;;;;4940113;29;20074;-82
2022/08/22 13:01:55;;;;;;;5.75;2.20;;;24.90;96.90;;;;;;4944156;29;20109;-82
2022/08/22 13:04:48;;;;;;;6.18;1.95;;;25.00;97.30;;;;;;4939837;29;20119;-82
2022/08/22 13:07:33;;;;;;;7.40;2.00;;;25.20;97.10;;;;;;4923162;29;20083;-82
2022/08/22 13:10:14;;;;;;;6.35;2.25;;;25.30;96.50;;;;;;4936000;29;20398;-82
2022/08/22 13:13:01;;;;;;;4.93;2.08;;;25.40;95.90;;;;;;4935153;29;20043;-83
2022/08/22 13:15:32;;;;;;;6.22;2.10;;;25.50;95.80;;;;;;4930120;29;20040;-82
2022/08/22 13:18:00;;;;;;;6.20;1.90;;;25.60;94.60;;;;;;4933585;29;20115;-83
2022/08/22 13:20:34;;;;;;;6.93;1.98;;;25.70;94.00;;;;;;4920324;29;20519;-83
2022/08/22 13:23:08;;;;;;;12.55;2.40;;;25.80;94.80;;;;;;4919392;29;20055;-82
2022/08/22 13:26:09;;;;;;;5.07;2.28;;;25.90;94.00;;;;;;4910784;29;20048;-82
2022/08/22 13:28:44;;;;;;;8.27;2.70;;;26.00;93.00;;;;;;4911029;29;20461;-82
2022/08/22 13:31:22;;;;;;;7.43;2.38;;;26.10;94.30;;;;;;4935661;29;20047;-82
2022/08/22 13:33:50;;;;;;;6.07;2.40;;;26.30;93.20;;;;;;4925113;29;20122;-82
2022/08/22 13:36:21;;;;;;;7.65;2.40;;;26.50;92.40;;;;;;4928382;29;20927;-81
2022/08/22 13:38:54;;;;;;;6.85;1.98;;;26.60;92.30;;;;;;4916775;29;20044;-82
2022/08/22 13:41:34;;;;;;;7.20;2.55;;;26.70;91.30;;;;;;4926574;29;20055;-81
2022/08/22 13:44:11;;;;;;;8.30;2.17;;;26.70;91.20;;;;;;4933282;29;20055;-81
2022/08/22 13:46:37;;;;;;;8.77;2.50;;;26.70;91.40;;;;;;4915470;29;20532;-81
2022/08/22 13:49:08;;;;;;;6.82;2.28;;;26.70;90.90;;;;;;4910449;29;20528;-82
2022/08/22 13:51:51;;;;;;;8.25;2.25;;;26.60;90.10;;;;;;4916417;29;20051;-82
2022/08/22 13:54:42;;;;;;;9.02;2.38;;;26.60;90.00;;;;;;4935753;29;20568;-82
2022/08/22 13:57:26;;;;;;;5.35;2.10;;;26.60;90.50;;;;;;4925972;29;20099;-82
2022/08/22 13:59:58;;;;;;;8.35;2.40;;;26.60;90.70;;;;;;4914537;29;20051;-82
2022/08/22 14:02:45;;;;;;;6.75;2.05;;;26.60;89.10;;;;;;4929911;29;20048;-82
2022/08/22 14:05:27;;;;;;;6.90;2.13;;;26.40;90.00;;;;;;4925679;29;20522;-83